Merrifield, MN (56465)

12:10 PM CST on December 20, 2014 (GMT -0600)
Downtown Lougee | Change Station
CLOSE
Current Station
Personal Weather Station
Location: Merrifield, MN
Elevation: 1194 ft
Nearby Weather Stations

Elev 1194 ft 46.54 °N, 94.15 °W | Updated 2 seconds ago

Overcast
Overcast
31.4 °F
Feels Like 31 °F
N
0.0
Wind Variable Wind from WSW
Gusts 7.0 mph

Today
High -- | Low -- °F
--% Chance of Precip.
Yesterday
High -- | Low -- °F
Precip. -- in
7:56 AM 4:31 PM
Waning Crescent, 2% visible
Pressure 30.12 in
Visibility 4.0 miles
Clouds Overcast 700 ft
Windchill 31 °F
Dew Point 30 °F
Humidity 93%
Rainfall 0.00 in
Snow Depth Not available.
UV 0 out of 12
Pollen .10 out of 12
Air Quality Not available.
Flu Activity Not available.
METAR KBRD 201753Z AUTO 20011KT 4SM BR OVC007 M01/M03 A3007 RMK AO2 SLP200 60000 I6000 T10111028 11011 21017 58000

More Conditions Fewer Conditions

Pressure 30.12 in
Visibility 4.0 miles
Clouds Overcast 700 ft
Windchill 31 °F
Dew Point 30 °F
Humidity 93%
Rainfall 0.00 in
Snow Depth Not available.
UV 0 out of 12
Pollen .10 out of 12
Air Quality Not available.
Flu Activity Not available.
METAR KBRD 201753Z AUTO 20011KT 4SM BR OVC007 M01/M03 A3007 RMK AO2 SLP200 60000 I6000 T10111028 11011 21017 58000

More Conditions Fewer Conditions

10-Day Weather Forecast

Almanac

Astronomy

Dec. 20, 2014 Rise Set
Actual Time
Civil Twilight
Nautical Twilight
Astronomical Twilight
Moon
Length of Visible Light
Length of Day
Tomorrow will be .
, % of the Moon is Illuminated

Today's Extremes

State Highs State Lows

Community

WunderPhotos

Upload Photos

1,779,237 photos uploaded!

WunderBlogs® & News

Nearby

Air Quality

  Air Quality AQ Index Pollutant
Not available.

Snow Depth

Station Depth Elevation

Earthquake Activity

City Distance Mag. Time & Date
Minimum magnitude displayed is 2.5.

Coastal Water Temperatures

Place Temperature

Nearby Weather Stations